METAR Data
IDs: Format: Raw Decoded Include TAF

Data at: 2011 UTC 18 Apr 2021

ETAD 181956Z AUTO 00000KT 9999 OVC044 09/03 A3013 RMK AO2 SLP200 T00890027